Time;durP1;ratioP1;P1;durP2;ratioP2;P2;SDS_P1;SDS_P2;PMS_P1;PMS_P2;Temp;Humidity;BMP_temperature;BMP_pressure;BME280_temperature;BME280_humidity;BME280_pressure;Samples;Min_cycle;Max_cycle;Signal;HPM_P1;HPM_P2
2022/07/17 00:00:42;;;;;;;5.85;1.88;;;14.90;99.90;;;;;;5030456;28;20377;-63
2022/07/17 00:03:15;;;;;;;5.30;1.38;;;14.90;99.90;;;;;;5024569;28;20048;-63
2022/07/17 00:05:42;;;;;;;6.67;2.00;;;14.80;99.90;;;;;;5029664;28;20067;-62
2022/07/17 00:08:09;;;;;;;6.65;2.00;;;14.70;99.90;;;;;;5034467;28;20341;-63
2022/07/17 00:10:36;;;;;;;8.55;2.47;;;14.60;99.90;;;;;;5047295;28;20033;-63
2022/07/17 00:13:02;;;;;;;6.07;2.00;;;14.60;99.90;;;;;;5026980;28;20060;-63
2022/07/17 00:15:28;;;;;;;5.50;1.70;;;14.60;99.90;;;;;;5028957;28;20033;-63
2022/07/17 00:17:54;;;;;;;5.78;2.00;;;14.60;99.90;;;;;;5046667;28;20420;-63
2022/07/17 00:20:21;;;;;;;4.38;1.95;;;14.50;99.90;;;;;;5029246;28;20033;-63
2022/07/17 00:22:47;;;;;;;5.05;1.80;;;14.50;99.90;;;;;;5016616;28;20029;-63
2022/07/17 00:25:13;;;;;;;5.50;1.88;;;14.50;99.90;;;;;;5028055;28;20103;-62
2022/07/17 00:27:39;;;;;;;5.88;2.03;;;14.50;99.90;;;;;;5028258;28;20053;-63
2022/07/17 00:30:05;;;;;;;5.00;2.20;;;14.40;99.90;;;;;;4995947;28;20130;-63
2022/07/17 00:32:31;;;;;;;4.85;2.15;;;14.40;99.90;;;;;;5011252;28;20041;-63
2022/07/17 00:34:57;;;;;;;5.70;2.13;;;14.20;99.90;;;;;;4995028;28;20045;-63
2022/07/17 00:37:22;;;;;;;6.45;2.22;;;14.20;99.90;;;;;;5026810;28;20034;-63
2022/07/17 00:39:48;;;;;;;4.78;2.25;;;14.20;99.90;;;;;;5009551;28;20038;-63
2022/07/17 00:42:15;;;;;;;6.68;2.35;;;14.10;99.90;;;;;;5027848;28;20037;-63
2022/07/17 00:44:42;;;;;;;5.03;2.55;;;14.10;99.90;;;;;;5007863;28;20041;-63
2022/07/17 00:47:19;;;;;;;6.18;2.10;;;14.10;99.90;;;;;;4995704;28;20470;-63
2022/07/17 00:49:46;;;;;;;5.95;2.10;;;14.10;99.90;;;;;;5011835;28;20052;-63
2022/07/17 00:52:13;;;;;;;6.10;2.22;;;14.00;99.90;;;;;;5008888;28;20041;-63
2022/07/17 00:54:40;;;;;;;7.65;2.05;;;13.90;99.90;;;;;;5010992;28;20369;-63
2022/07/17 00:57:09;;;;;;;5.03;2.40;;;13.90;99.90;;;;;;5008985;28;20188;-62
2022/07/17 00:59:35;;;;;;;7.20;2.22;;;13.90;99.90;;;;;;5026288;28;20041;-63
2022/07/17 01:02:05;;;;;;;8.02;2.30;;;13.90;99.90;;;;;;5026121;28;20061;-63
2022/07/17 01:04:32;;;;;;;7.10;2.10;;;13.90;99.90;;;;;;5010856;28;20045;-63
2022/07/17 01:06:59;;;;;;;6.00;2.05;;;13.90;99.90;;;;;;5007690;28;20128;-62
2022/07/17 01:09:25;;;;;;;7.13;2.30;;;13.90;99.90;;;;;;5011497;28;20076;-63
2022/07/17 01:11:51;;;;;;;7.05;2.00;;;13.90;99.90;;;;;;5007103;28;20049;-63
2022/07/17 01:14:18;;;;;;;9.02;2.35;;;13.90;99.90;;;;;;5005633;28;20037;-62
2022/07/17 01:16:44;;;;;;;4.57;2.03;;;13.80;99.90;;;;;;5028638;28;20091;-63
2022/07/17 01:19:11;;;;;;;6.55;2.40;;;13.80;99.90;;;;;;5005393;28;20406;-63
2022/07/17 01:21:41;;;;;;;7.70;2.40;;;13.70;99.90;;;;;;5028021;28;20037;-63
2022/07/17 01:24:07;;;;;;;5.75;1.90;;;13.70;99.90;;;;;;5006586;28;20045;-64
2022/07/17 01:26:33;;;;;;;5.72;2.35;;;13.60;99.90;;;;;;5027028;28;20052;-63
2022/07/17 01:28:58;;;;;;;6.00;2.47;;;13.60;99.90;;;;;;5008611;28;20403;-63
2022/07/17 01:31:24;;;;;;;8.77;2.03;;;13.60;99.90;;;;;;5008856;28;20043;-63
2022/07/17 01:33:50;;;;;;;7.57;2.60;;;13.50;99.90;;;;;;5012402;28;20037;-63
2022/07/17 01:36:15;;;;;;;9.05;2.63;;;13.50;99.90;;;;;;5006158;28;20053;-63
2022/07/17 01:38:41;;;;;;;7.93;2.60;;;13.50;99.90;;;;;;5009272;28;20033;-62
2022/07/17 01:41:07;;;;;;;7.05;2.67;;;13.30;99.90;;;;;;5008671;28;20038;-62
2022/07/17 01:43:32;;;;;;;6.97;2.50;;;13.40;99.90;;;;;;5008838;28;20332;-62
2022/07/17 01:45:58;;;;;;;5.68;2.33;;;13.30;99.90;;;;;;5012756;28;20045;-62
2022/07/17 01:48:29;;;;;;;9.15;2.75;;;13.30;99.90;;;;;;5008515;28;20409;-62
2022/07/17 01:50:55;;;;;;;5.68;2.15;;;13.20;99.90;;;;;;5010910;28;20044;-62
2022/07/17 01:53:21;;;;;;;6.82;2.38;;;13.20;99.90;;;;;;5014651;28;20048;-62
2022/07/17 01:55:47;;;;;;;5.97;2.28;;;13.20;99.90;;;;;;4994959;28;20462;-63
2022/07/17 01:58:13;;;;;;;6.25;2.67;;;13.20;99.90;;;;;;5027042;28;20125;-62
2022/07/17 02:00:39;;;;;;;6.13;2.40;;;13.20;99.90;;;;;;5009907;28;20033;-63
2022/07/17 02:03:05;;;;;;;7.03;2.33;;;13.10;99.90;;;;;;5009872;28;20104;-63
2022/07/17 02:05:31;;;;;;;6.20;2.50;;;13.20;99.90;;;;;;5010414;28;20038;-63
2022/07/17 02:07:56;;;;;;;5.97;2.58;;;13.10;99.90;;;;;;5008498;28;20091;-63
2022/07/17 02:10:22;;;;;;;4.47;2.33;;;13.20;99.90;;;;;;5008366;28;20157;-63
2022/07/17 02:12:48;;;;;;;6.63;2.33;;;13.20;99.90;;;;;;5008519;28;20120;-63
2022/07/17 02:15:13;;;;;;;5.45;2.47;;;13.10;99.90;;;;;;5012662;28;20037;-63
2022/07/17 02:17:41;;;;;;;5.40;2.60;;;13.20;99.90;;;;;;5030390;28;20414;-63
2022/07/17 02:20:07;;;;;;;4.68;2.75;;;13.10;99.90;;;;;;5010231;28;20498;-63
2022/07/17 02:22:33;;;;;;;5.88;2.75;;;13.10;99.90;;;;;;5010900;28;20585;-63
2022/07/17 02:24:59;;;;;;;7.30;2.63;;;13.10;99.90;;;;;;5027397;28;20042;-62
2022/07/17 02:27:24;;;;;;;6.55;2.97;;;13.10;99.90;;;;;;5034183;28;20037;-63
2022/07/17 02:29:50;;;;;;;6.68;2.63;;;13.10;99.90;;;;;;5031742;28;20049;-63
2022/07/17 02:32:16;;;;;;;7.20;3.05;;;13.00;99.90;;;;;;5050907;28;20029;-62
2022/07/17 02:34:41;;;;;;;6.50;2.72;;;13.00;99.90;;;;;;5030217;28;20048;-63
2022/07/17 02:37:07;;;;;;;8.23;2.80;;;13.00;99.90;;;;;;5028668;28;20043;-62
2022/07/17 02:39:33;;;;;;;7.78;2.70;;;12.90;99.90;;;;;;5032870;28;20041;-63
2022/07/17 02:41:58;;;;;;;5.18;2.50;;;12.90;99.90;;;;;;5031551;28;20033;-63
2022/07/17 02:44:24;;;;;;;5.35;2.58;;;12.80;99.90;;;;;;5049057;28;20071;-62
2022/07/17 02:46:49;;;;;;;8.13;2.67;;;12.80;99.90;;;;;;5032686;28;20060;-62
2022/07/17 02:49:15;;;;;;;8.75;3.00;;;12.80;99.90;;;;;;5033468;28;20048;-62
2022/07/17 02:51:41;;;;;;;4.72;2.90;;;12.80;99.90;;;;;;5030416;28;20038;-63
2022/07/17 02:54:06;;;;;;;5.30;2.22;;;12.80;99.90;;;;;;5017277;28;20033;-63
2022/07/17 02:56:32;;;;;;;5.68;2.50;;;12.70;99.90;;;;;;5030095;28;20102;-63
2022/07/17 02:58:57;;;;;;;6.65;2.60;;;12.70;99.90;;;;;;5036748;28;20040;-63
2022/07/17 03:01:24;;;;;;;6.80;2.40;;;12.60;99.90;;;;;;5032838;28;20389;-63
2022/07/17 03:03:49;;;;;;;6.82;2.65;;;12.50;99.90;;;;;;5034298;28;20120;-63
2022/07/17 03:06:15;;;;;;;4.97;2.80;;;12.50;99.90;;;;;;5031208;28;20061;-62
2022/07/17 03:08:41;;;;;;;5.88;3.13;;;12.50;99.90;;;;;;5033708;28;20048;-62
2022/07/17 03:11:06;;;;;;;5.72;2.70;;;12.40;99.90;;;;;;5033503;28;20445;-62
2022/07/17 03:13:32;;;;;;;7.85;3.08;;;12.40;99.90;;;;;;5028907;28;20148;-62
2022/07/17 03:15:58;;;;;;;5.40;2.90;;;12.40;99.90;;;;;;5031111;28;20116;-63
2022/07/17 03:18:23;;;;;;;5.78;2.70;;;12.30;99.90;;;;;;5028322;28;20102;-62
2022/07/17 03:20:49;;;;;;;5.75;2.42;;;12.40;99.90;;;;;;5049563;28;20037;-62
2022/07/17 03:23:15;;;;;;;9.32;2.83;;;12.40;99.90;;;;;;5032702;28;20063;-62
2022/07/17 03:25:41;;;;;;;7.47;2.50;;;12.40;99.90;;;;;;5025931;28;20102;-62
2022/07/17 03:28:06;;;;;;;5.60;2.50;;;12.50;99.90;;;;;;5013371;28;20120;-63
2022/07/17 03:30:32;;;;;;;7.72;3.10;;;12.50;99.90;;;;;;5015844;28;20447;-63
2022/07/17 03:32:58;;;;;;;6.05;2.80;;;12.60;99.90;;;;;;5029965;28;20759;-63
2022/07/17 03:35:23;;;;;;;6.95;2.60;;;12.60;99.90;;;;;;5011203;28;20466;-63
2022/07/17 03:37:49;;;;;;;5.95;2.78;;;12.60;99.90;;;;;;5014893;28;20399;-63
2022/07/17 03:40:15;;;;;;;5.78;2.63;;;12.60;99.90;;;;;;5028427;28;20045;-66
2022/07/17 03:42:40;;;;;;;5.45;2.92;;;12.70;99.90;;;;;;5013571;28;20467;-63
2022/07/17 03:45:07;;;;;;;5.53;2.75;;;12.70;99.90;;;;;;5013413;28;20029;-63
2022/07/17 03:47:33;;;;;;;11.20;3.25;;;12.60;99.90;;;;;;5010678;28;20366;-62
2022/07/17 03:49:59;;;;;;;6.13;2.75;;;12.60;99.90;;;;;;5013764;28;20518;-63
2022/07/17 03:52:24;;;;;;;8.15;2.97;;;12.70;99.90;;;;;;5029679;28;20033;-62
2022/07/17 03:54:50;;;;;;;6.22;2.85;;;12.70;99.90;;;;;;5010808;28;20052;-63
2022/07/17 03:57:15;;;;;;;6.25;2.70;;;12.70;99.90;;;;;;5029464;28;20059;-62
2022/07/17 03:59:41;;;;;;;6.35;2.63;;;12.70;99.90;;;;;;5009984;28;20045;-63
2022/07/17 04:02:07;;;;;;;8.15;3.00;;;12.70;99.90;;;;;;5012071;28;20103;-62
2022/07/17 04:04:32;;;;;;;7.88;2.70;;;12.90;99.90;;;;;;5013110;28;20069;-63
2022/07/17 04:06:58;;;;;;;5.15;2.70;;;12.90;99.90;;;;;;5009487;28;20471;-63
2022/07/17 04:09:24;;;;;;;5.60;2.60;;;13.00;99.90;;;;;;5012942;28;20124;-63
2022/07/17 04:11:49;;;;;;;9.98;3.50;;;13.10;99.90;;;;;;5009023;28;20447;-64
2022/07/17 04:14:15;;;;;;;7.90;3.28;;;13.20;99.90;;;;;;5007211;28;20053;-63
2022/07/17 04:16:40;;;;;;;6.60;2.75;;;13.20;99.90;;;;;;5010467;28;20106;-63
2022/07/17 04:19:06;;;;;;;7.45;2.40;;;13.20;99.90;;;;;;5023594;28;20037;-63
2022/07/17 04:21:32;;;;;;;7.90;2.65;;;13.20;99.90;;;;;;5011443;28;20053;-63
2022/07/17 04:23:57;;;;;;;5.10;2.03;;;13.20;99.90;;;;;;5008332;28;20052;-64
2022/07/17 04:26:23;;;;;;;7.95;2.42;;;13.20;99.90;;;;;;5009213;28;20064;-63
2022/07/17 04:28:49;;;;;;;6.78;2.30;;;13.30;99.90;;;;;;5010030;28;20094;-63
2022/07/17 04:31:14;;;;;;;10.38;2.40;;;13.30;99.90;;;;;;5029599;28;20099;-63
2022/07/17 04:33:40;;;;;;;6.75;2.30;;;13.40;99.90;;;;;;5013842;28;20179;-63
2022/07/17 04:36:05;;;;;;;8.10;2.70;;;13.50;99.90;;;;;;5011165;28;20052;-63
2022/07/17 04:38:31;;;;;;;4.18;2.28;;;13.50;99.90;;;;;;4992228;28;20516;-63
2022/07/17 04:40:57;;;;;;;4.45;2.40;;;13.60;99.90;;;;;;5009320;28;20038;-63
2022/07/17 04:43:22;;;;;;;5.32;2.13;;;13.60;99.90;;;;;;5011574;28;20041;-63
2022/07/17 04:45:48;;;;;;;7.85;2.17;;;13.60;99.90;;;;;;5032106;28;20065;-63
2022/07/17 04:48:14;;;;;;;3.78;2.05;;;13.60;99.90;;;;;;5008978;28;20451;-63
2022/07/17 04:50:40;;;;;;;4.43;2.08;;;13.70;99.90;;;;;;5006674;28;20034;-63
2022/07/17 04:53:05;;;;;;;4.20;2.33;;;13.80;99.90;;;;;;5010476;28;20041;-63
2022/07/17 04:55:31;;;;;;;7.57;2.13;;;13.90;99.90;;;;;;5006251;28;20048;-63
2022/07/17 04:57:57;;;;;;;5.63;2.03;;;13.90;99.90;;;;;;5012183;28;20049;-63
2022/07/17 05:00:22;;;;;;;5.57;2.25;;;14.10;99.90;;;;;;5026209;28;20033;-62
2022/07/17 05:02:48;;;;;;;5.05;1.90;;;14.30;99.90;;;;;;5027163;28;20069;-63
2022/07/17 05:05:14;;;;;;;5.40;2.10;;;14.40;99.90;;;;;;5010517;28;20092;-62
2022/07/17 05:07:40;;;;;;;4.28;1.92;;;14.50;99.90;;;;;;5011447;28;20037;-62
2022/07/17 05:10:08;;;;;;;6.43;1.80;;;14.60;99.90;;;;;;4994076;28;20068;-62
2022/07/17 05:12:34;;;;;;;4.95;1.52;;;14.70;99.90;;;;;;5008059;28;20277;-62
2022/07/17 05:15:00;;;;;;;5.75;2.03;;;14.70;99.90;;;;;;5009646;28;20037;-62
2022/07/17 05:17:26;;;;;;;5.30;2.03;;;14.60;99.90;;;;;;5008184;28;20417;-62
2022/07/17 05:19:51;;;;;;;6.70;1.70;;;14.70;99.90;;;;;;4991867;28;20049;-62
2022/07/17 05:22:17;;;;;;;4.82;1.77;;;14.80;99.90;;;;;;5008112;28;20105;-62
2022/07/17 05:24:43;;;;;;;4.15;1.70;;;15.00;99.90;;;;;;5007478;28;20087;-63
2022/07/17 05:27:08;;;;;;;7.20;1.88;;;15.30;99.90;;;;;;5037419;28;20064;-63
2022/07/17 05:29:34;;;;;;;4.28;1.70;;;15.50;99.90;;;;;;5037247;28;20171;-63
2022/07/17 05:32:00;;;;;;;5.82;1.60;;;15.70;99.90;;;;;;5035348;28;20044;-63
2022/07/17 05:34:25;;;;;;;5.97;1.92;;;16.00;99.90;;;;;;5034387;28;20047;-63
2022/07/17 05:36:51;;;;;;;5.65;1.85;;;16.10;99.90;;;;;;5033068;28;20047;-63
2022/07/17 05:39:17;;;;;;;6.63;1.67;;;16.40;99.90;;;;;;5037009;28;20044;-63
2022/07/17 05:41:42;;;;;;;5.47;1.60;;;16.60;99.90;;;;;;5033716;28;20037;-63
2022/07/17 05:44:08;;;;;;;4.85;1.60;;;16.50;99.90;;;;;;5034859;28;20132;-63
2022/07/17 05:46:34;;;;;;;5.70;1.80;;;16.50;99.90;;;;;;5037859;28;20318;-64
2022/07/17 05:48:59;;;;;;;4.03;1.45;;;16.40;99.90;;;;;;5039345;28;20110;-63
2022/07/17 05:51:25;;;;;;;6.65;1.50;;;16.20;99.90;;;;;;5044603;28;20036;-64
2022/07/17 05:53:51;;;;;;;5.32;1.63;;;16.00;99.90;;;;;;5040966;28;20048;-63
2022/07/17 05:56:16;;;;;;;6.88;1.73;;;16.10;99.90;;;;;;5042113;28;20051;-63
2022/07/17 05:58:42;;;;;;;6.28;1.67;;;16.10;99.90;;;;;;5040089;28;20052;-63
2022/07/17 06:01:08;;;;;;;6.80;1.70;;;16.10;99.90;;;;;;5040206;28;20032;-63
2022/07/17 06:03:33;;;;;;;6.10;1.70;;;16.00;99.90;;;;;;5035029;28;20037;-64
2022/07/17 06:05:59;;;;;;;10.20;2.20;;;16.00;99.90;;;;;;5036307;28;20505;-63
2022/07/17 06:08:24;;;;;;;3.65;1.58;;;16.10;99.90;;;;;;5031035;28;20446;-65
2022/07/17 06:10:50;;;;;;;6.47;1.48;;;16.30;99.90;;;;;;5056006;28;20029;-63
2022/07/17 06:13:16;;;;;;;5.85;1.42;;;16.60;99.90;;;;;;5039476;28;20072;-63
2022/07/17 06:15:41;;;;;;;6.88;1.73;;;17.00;99.90;;;;;;5030520;28;20032;-63
2022/07/17 06:18:07;;;;;;;5.30;1.40;;;17.40;99.90;;;;;;5039001;28;20041;-62
2022/07/17 06:20:32;;;;;;;6.70;1.80;;;18.10;99.90;;;;;;5031063;28;20336;-63
2022/07/17 06:22:58;;;;;;;4.68;1.48;;;18.70;99.90;;;;;;5045724;28;20036;-63
2022/07/17 06:25:24;;;;;;;6.30;1.67;;;19.20;99.90;;;;;;5028608;28;20412;-63
2022/07/17 06:27:50;;;;;;;4.25;1.40;;;20.10;99.90;;;;;;5043167;28;20033;-62
2022/07/17 06:30:16;;;;;;;6.05;1.67;;;21.10;99.90;;;;;;5042945;28;20107;-64
2022/07/17 06:32:42;;;;;;;4.25;1.38;;;21.90;99.90;;;;;;5039969;28;20041;-64
2022/07/17 06:35:09;;;;;;;5.72;1.60;;;22.60;99.30;;;;;;5028917;28;20078;-65
2022/07/17 06:37:36;;;;;;;3.63;1.30;;;23.30;98.40;;;;;;5041491;28;20060;-64
2022/07/17 06:40:03;;;;;;;4.80;1.65;;;23.80;98.00;;;;;;5014734;28;20068;-63
2022/07/17 06:42:28;;;;;;;3.63;1.27;;;24.20;97.10;;;;;;5006926;28;20034;-63
2022/07/17 06:44:54;;;;;;;6.78;1.40;;;24.20;96.30;;;;;;5020715;28;20056;-64
2022/07/17 06:47:19;;;;;;;5.47;1.60;;;24.60;96.20;;;;;;5027429;28;20120;-61
2022/07/17 06:49:45;;;;;;;5.47;1.30;;;24.90;95.90;;;;;;5041512;28;20033;-63
2022/07/17 06:52:11;;;;;;;5.63;1.30;;;25.30;95.60;;;;;;5021197;28;20473;-64
2022/07/17 06:54:36;;;;;;;5.90;1.20;;;25.50;95.00;;;;;;5025791;28;20076;-64
2022/07/17 06:57:02;;;;;;;4.95;1.20;;;25.80;94.70;;;;;;5003277;28;20092;-64
2022/07/17 06:59:28;;;;;;;4.97;1.23;;;25.80;94.30;;;;;;5024943;28;20326;-65
2022/07/17 07:01:53;;;;;;;5.85;1.40;;;25.90;94.20;;;;;;5043476;28;20045;-63
2022/07/17 07:04:19;;;;;;;5.55;1.20;;;25.50;93.80;;;;;;5017987;28;20044;-63
2022/07/17 07:06:45;;;;;;;4.43;1.27;;;25.20;94.20;;;;;;5011128;28;20044;-64
2022/07/17 07:09:13;;;;;;;6.50;1.30;;;24.40;94.70;;;;;;5020237;28;20044;-64
2022/07/17 07:11:39;;;;;;;5.88;1.40;;;23.60;95.20;;;;;;5019482;28;20455;-64
2022/07/17 07:14:06;;;;;;;6.03;1.33;;;23.30;95.90;;;;;;5019161;28;20029;-63
2022/07/17 07:16:32;;;;;;;6.30;1.40;;;23.00;96.10;;;;;;5021220;28;20537;-64
2022/07/17 07:18:58;;;;;;;5.65;1.40;;;22.90;96.30;;;;;;5013967;28;20132;-64
2022/07/17 07:21:25;;;;;;;4.40;1.08;;;22.70;96.40;;;;;;5019425;28;20076;-63
2022/07/17 07:23:51;;;;;;;3.47;1.50;;;22.60;96.60;;;;;;5022009;28;20474;-62
2022/07/17 07:26:17;;;;;;;3.88;1.23;;;22.30;96.80;;;;;;5030560;28;20047;-63
2022/07/17 07:28:42;;;;;;;5.15;1.20;;;22.00;96.70;;;;;;5032497;28;20032;-62
2022/07/17 07:31:08;;;;;;;6.28;1.90;;;21.70;97.10;;;;;;5040503;28;20030;-60
2022/07/17 07:33:34;;;;;;;4.22;1.42;;;21.60;97.40;;;;;;5037622;28;20115;-61
2022/07/17 07:35:59;;;;;;;9.13;1.60;;;21.60;97.40;;;;;;5033726;28;20076;-63
2022/07/17 07:38:25;;;;;;;4.35;1.40;;;21.50;97.60;;;;;;5018066;28;20426;-62
2022/07/17 07:40:51;;;;;;;5.15;1.30;;;21.40;97.80;;;;;;5043805;28;20041;-63
2022/07/17 07:43:16;;;;;;;5.38;1.40;;;21.30;97.80;;;;;;5011209;28;20120;-61
2022/07/17 07:45:42;;;;;;;5.65;1.38;;;21.40;97.90;;;;;;5034134;28;20029;-60
2022/07/17 07:48:08;;;;;;;5.10;1.58;;;21.60;97.80;;;;;;5038818;28;20091;-61
2022/07/17 07:50:33;;;;;;;4.70;1.40;;;21.70;97.60;;;;;;5032322;28;20071;-62
2022/07/17 07:52:59;;;;;;;6.40;1.75;;;21.50;97.70;;;;;;5028406;28;20461;-61
2022/07/17 07:55:25;;;;;;;5.03;1.40;;;21.30;98.00;;;;;;5044074;28;20041;-63
2022/07/17 07:58:05;;;;;;;4.80;1.52;;;21.20;98.10;;;;;;5046867;28;20480;-62
2022/07/17 08:00:31;;;;;;;7.28;1.40;;;20.90;98.20;;;;;;5017854;28;20043;-61
2022/07/17 08:02:57;;;;;;;9.48;1.67;;;20.80;98.50;;;;;;5046151;28;20044;-62
2022/07/17 08:05:23;;;;;;;3.47;1.05;;;21.00;98.60;;;;;;5029284;28;20041;-61
2022/07/17 08:07:49;;;;;;;4.55;1.38;;;21.20;98.80;;;;;;5047238;28;20417;-62
2022/07/17 08:10:14;;;;;;;5.10;1.40;;;21.30;98.40;;;;;;5029527;28;20441;-62
2022/07/17 08:12:40;;;;;;;4.50;1.27;;;21.40;98.40;;;;;;5015095;28;20044;-62
2022/07/17 08:15:06;;;;;;;8.05;1.50;;;21.60;98.40;;;;;;5049790;28;20108;-61
2022/07/17 08:17:32;;;;;;;3.13;1.02;;;21.40;98.50;;;;;;5046575;28;20043;-62
2022/07/17 08:19:57;;;;;;;6.70;1.80;;;21.30;98.60;;;;;;5046804;28;20037;-62
2022/07/17 08:22:23;;;;;;;4.13;1.23;;;21.00;99.00;;;;;;5046184;28;20446;-61
2022/07/17 08:24:49;;;;;;;4.75;1.10;;;21.00;99.10;;;;;;5043551;28;20059;-62
2022/07/17 08:27:14;;;;;;;3.20;1.20;;;21.30;98.90;;;;;;5035397;28;20045;-61
2022/07/17 08:29:40;;;;;;;5.00;1.10;;;21.30;98.90;;;;;;5047820;28;20039;-62
2022/07/17 08:32:06;;;;;;;4.97;1.50;;;21.20;98.90;;;;;;5031423;28;20048;-62
2022/07/17 08:34:31;;;;;;;5.05;1.15;;;21.50;98.70;;;;;;5046780;28;20068;-61
2022/07/17 08:36:57;;;;;;;7.25;1.30;;;21.70;98.50;;;;;;5046641;28;20040;-62
2022/07/17 08:39:23;;;;;;;6.60;1.20;;;21.50;99.00;;;;;;5031150;28;20041;-61
2022/07/17 08:41:49;;;;;;;6.15;1.48;;;21.40;98.80;;;;;;5046460;28;20106;-61
2022/07/17 08:44:14;;;;;;;3.75;1.40;;;21.30;98.90;;;;;;5035843;28;20040;-62
2022/07/17 08:46:40;;;;;;;4.57;1.30;;;21.20;98.90;;;;;;5048031;28;20029;-62
2022/07/17 08:49:07;;;;;;;5.88;1.20;;;21.00;99.10;;;;;;5049066;28;20032;-62
2022/07/17 08:51:34;;;;;;;4.85;1.30;;;21.00;99.30;;;;;;5046620;28;20048;-63
2022/07/17 08:54:00;;;;;;;4.13;1.55;;;20.80;99.10;;;;;;5047090;28;20110;-62
2022/07/17 08:56:26;;;;;;;5.45;1.63;;;20.70;99.40;;;;;;5028684;28;20099;-62
2022/07/17 08:58:52;;;;;;;4.30;1.15;;;20.70;99.40;;;;;;5047373;28;20059;-62
2022/07/17 09:01:19;;;;;;;3.28;1.10;;;20.80;99.50;;;;;;5029938;28;20465;-62
2022/07/17 09:03:55;;;;;;;5.35;1.67;;;20.70;99.90;;;;;;5045906;28;20063;-62
2022/07/17 09:06:21;;;;;;;3.75;1.08;;;20.80;99.90;;;;;;5043234;28;20493;-62
2022/07/17 09:08:48;;;;;;;6.25;1.38;;;20.70;99.90;;;;;;5031127;28;20033;-62
2022/07/17 09:11:13;;;;;;;3.42;1.10;;;20.80;99.90;;;;;;5031353;28;20048;-63
2022/07/17 09:13:45;;;;;;;3.97;1.35;;;21.00;99.90;;;;;;5044109;28;20045;-62
2022/07/17 09:16:12;;;;;;;6.18;1.23;;;21.00;99.80;;;;;;5047478;28;20049;-62
2022/07/17 09:18:53;;;;;;;3.58;1.10;;;20.90;99.80;;;;;;5043517;28;20128;-62
2022/07/17 09:21:24;;;;;;;3.13;1.23;;;21.10;99.50;;;;;;5028536;28;20153;-62
2022/07/17 09:24:03;;;;;;;2.55;0.90;;;21.30;99.30;;;;;;5042712;28;20460;-62
2022/07/17 09:26:32;;;;;;;3.63;1.42;;;21.30;99.20;;;;;;5045943;28;20477;-62
2022/07/17 09:29:00;;;;;;;6.57;1.40;;;21.50;99.00;;;;;;5045454;28;20094;-62
2022/07/17 09:31:28;;;;;;;4.95;1.08;;;21.40;99.10;;;;;;5048601;28;20033;-64
2022/07/17 09:33:55;;;;;;;3.83;1.15;;;21.40;98.70;;;;;;5052449;28;20047;-61
2022/07/17 09:36:21;;;;;;;4.68;1.20;;;21.30;98.50;;;;;;5043484;28;20037;-61
2022/07/17 09:38:51;;;;;;;4.03;1.17;;;21.20;98.50;;;;;;5028448;28;20041;-62
2022/07/17 09:41:20;;;;;;;3.33;1.40;;;21.30;98.60;;;;;;5026139;28;20140;-63
2022/07/17 09:43:54;;;;;;;4.30;1.13;;;21.40;98.70;;;;;;5047252;28;20060;-62
2022/07/17 09:46:22;;;;;;;3.65;1.20;;;21.40;98.60;;;;;;5047365;28;20363;-62
2022/07/17 09:48:57;;;;;;;5.10;1.20;;;21.60;98.50;;;;;;5047502;28;20056;-64
2022/07/17 09:51:34;;;;;;;3.97;1.38;;;21.90;98.50;;;;;;5044723;28;20335;-62
2022/07/17 09:54:02;;;;;;;4.05;1.50;;;22.00;98.00;;;;;;5046152;28;20068;-62
2022/07/17 09:56:30;;;;;;;2.92;1.00;;;22.10;98.00;;;;;;5045340;28;20344;-63
2022/07/17 09:59:01;;;;;;;4.38;1.13;;;22.20;97.60;;;;;;5047334;28;20041;-62
2022/07/17 10:01:27;;;;;;;4.68;1.40;;;22.10;97.50;;;;;;5047763;28;20052;-62
2022/07/17 10:03:54;;;;;;;4.88;1.30;;;22.00;97.80;;;;;;5045683;28;20045;-61
2022/07/17 10:06:22;;;;;;;3.72;1.30;;;22.00;97.90;;;;;;5014259;28;20057;-62
2022/07/17 10:08:47;;;;;;;4.55;1.50;;;22.10;97.80;;;;;;5035219;28;20060;-61
2022/07/17 10:11:15;;;;;;;4.20;1.38;;;21.90;97.80;;;;;;5030632;28;20389;-62
2022/07/17 10:13:43;;;;;;;6.75;1.17;;;21.70;98.00;;;;;;5044684;28;20525;-62
2022/07/17 10:16:09;;;;;;;3.60;1.08;;;21.70;98.40;;;;;;5046547;28;20114;-62
2022/07/17 10:18:41;;;;;;;4.68;1.38;;;21.60;98.30;;;;;;5025129;28;20046;-61
2022/07/17 10:21:18;;;;;;;5.45;1.85;;;21.70;98.30;;;;;;5043748;28;20333;-62
2022/07/17 10:24:05;;;;;;;6.55;1.60;;;22.00;98.30;;;;;;5042429;28;20053;-62
2022/07/17 10:26:38;;;;;;;3.75;1.30;;;22.10;98.10;;;;;;5037873;28;20044;-62
2022/07/17 10:29:08;;;;;;;5.05;1.42;;;22.10;98.40;;;;;;5055180;28;20394;-62
2022/07/17 10:31:34;;;;;;;4.30;1.40;;;22.10;98.30;;;;;;5032128;28;20416;-62
2022/07/17 10:34:05;;;;;;;6.60;1.95;;;22.10;98.00;;;;;;5031662;28;20049;-62
2022/07/17 10:36:38;;;;;;;3.88;1.25;;;22.20;98.10;;;;;;5027935;28;20046;-61
2022/07/17 10:39:20;;;;;;;5.33;1.43;;;22.20;98.10;;;;;;5032302;28;20065;-63
2022/07/17 10:42:15;;;;;;;3.47;1.23;;;22.20;97.90;;;;;;5042738;28;20449;-62
2022/07/17 10:44:40;;;;;;;2.88;1.20;;;22.30;98.00;;;;;;5021894;28;20049;-62
2022/07/17 10:47:06;;;;;;;4.90;1.77;;;22.50;97.90;;;;;;5017250;28;20056;-63
2022/07/17 10:49:34;;;;;;;4.10;1.52;;;22.50;97.80;;;;;;5033021;28;20047;-61
2022/07/17 10:52:00;;;;;;;5.30;1.50;;;22.70;97.60;;;;;;5030827;28;20438;-62
2022/07/17 10:54:33;;;;;;;5.70;1.48;;;22.80;97.40;;;;;;5049291;28;20040;-61
2022/07/17 10:57:01;;;;;;;3.47;1.30;;;23.10;97.20;;;;;;5030142;28;20087;-61
2022/07/17 10:59:27;;;;;;;5.70;1.67;;;23.30;96.90;;;;;;5031807;28;20041;-62
2022/07/17 11:01:58;;;;;;;3.28;1.30;;;23.40;96.90;;;;;;5050343;28;20064;-61
2022/07/17 11:04:24;;;;;;;3.60;1.40;;;23.50;96.50;;;;;;5052211;28;20049;-62
2022/07/17 11:06:49;;;;;;;3.90;1.55;;;23.60;96.30;;;;;;5028088;28;20037;-61
2022/07/17 11:09:15;;;;;;;4.28;1.42;;;23.40;96.40;;;;;;5022591;28;20142;-62
2022/07/17 11:11:43;;;;;;;4.10;1.30;;;23.50;96.40;;;;;;5030297;28;20037;-61
2022/07/17 11:14:18;;;;;;;5.43;1.60;;;23.50;96.40;;;;;;5033415;28;20337;-61
2022/07/17 11:17:04;;;;;;;1.95;1.30;;;23.60;96.40;;;;;;5043372;28;20040;-62
2022/07/17 11:19:32;;;;;;;7.18;1.40;;;23.80;96.30;;;;;;5044195;28;20449;-62
2022/07/17 11:22:00;;;;;;;4.72;1.50;;;23.80;96.20;;;;;;5049941;28;20047;-62
2022/07/17 11:24:36;;;;;;;2.50;1.30;;;23.70;96.50;;;;;;5030145;28;20098;-62
2022/07/17 11:27:02;;;;;;;2.88;1.27;;;23.70;96.50;;;;;;5049452;28;20044;-62
2022/07/17 11:29:27;;;;;;;3.72;1.48;;;23.60;96.60;;;;;;5032377;28;20048;-62
2022/07/17 11:31:57;;;;;;;3.63;1.60;;;23.70;96.70;;;;;;5032263;28;20501;-62
2022/07/17 11:34:25;;;;;;;13.07;5.63;;;23.90;95.80;;;;;;5052171;28;20077;-62
2022/07/17 11:36:51;;;;;;;8.70;3.65;;;24.00;95.90;;;;;;5030062;28;20124;-60
2022/07/17 11:39:18;;;;;;;5.03;1.90;;;23.80;96.10;;;;;;5052455;28;20124;-63
2022/07/17 11:41:46;;;;;;;6.57;1.83;;;23.90;96.10;;;;;;5028961;28;20347;-61
2022/07/17 11:44:14;;;;;;;5.65;1.30;;;23.90;95.90;;;;;;5033261;28;20389;-61
2022/07/17 11:46:42;;;;;;;3.20;1.30;;;23.90;96.10;;;;;;5032684;28;20037;-60
2022/07/17 11:49:08;;;;;;;3.72;1.70;;;23.70;96.20;;;;;;5031687;28;20040;-62
2022/07/17 11:51:44;;;;;;;4.00;1.60;;;23.60;96.30;;;;;;5030375;28;20048;-62
2022/07/17 11:54:15;;;;;;;3.67;1.85;;;23.80;96.40;;;;;;5035316;28;20103;-61
2022/07/17 11:56:42;;;;;;;5.47;1.70;;;23.90;96.10;;;;;;5043636;28;20403;-61
2022/07/17 11:59:10;;;;;;;3.20;1.45;;;24.20;96.10;;;;;;5032273;28;20561;-62
2022/07/17 12:01:44;;;;;;;4.38;1.48;;;24.20;96.00;;;;;;5030589;28;20045;-61
2022/07/17 12:04:13;;;;;;;5.97;1.63;;;24.20;95.90;;;;;;5030966;28;20045;-61
2022/07/17 12:06:39;;;;;;;4.70;1.70;;;23.90;96.10;;;;;;5028911;28;20343;-61
2022/07/17 12:09:06;;;;;;;4.63;1.80;;;23.90;96.20;;;;;;5036362;28;20119;-63
2022/07/17 12:11:32;;;;;;;3.00;1.42;;;24.10;96.40;;;;;;5029803;28;20043;-61
2022/07/17 12:14:05;;;;;;;3.30;1.50;;;24.40;96.30;;;;;;5029626;28;20033;-62
2022/07/17 12:16:34;;;;;;;5.00;1.80;;;24.60;96.10;;;;;;5022962;28;20059;-61
2022/07/17 12:19:11;;;;;;;3.97;1.60;;;24.70;95.80;;;;;;5029473;28;20041;-61
2022/07/17 12:21:54;;;;;;;8.48;2.08;;;24.60;95.80;;;;;;5022626;28;20126;-61
2022/07/17 12:24:20;;;;;;;;;;;24.40;96.00;;;;;;5028502;28;20052;-61
2022/07/17 12:26:46;;;;;;;5.05;1.70;;;24.30;96.00;;;;;;5031348;28;19916;-61
2022/07/17 12:29:11;;;;;;;6.05;1.70;;;24.20;96.00;;;;;;5029428;28;20498;-62
2022/07/17 12:31:37;;;;;;;2.88;1.88;;;24.10;95.90;;;;;;5031245;28;20780;-62
2022/07/17 12:34:03;;;;;;;3.67;1.65;;;23.90;96.00;;;;;;5035485;28;20064;-62
2022/07/17 12:36:29;;;;;;;3.55;1.70;;;23.90;96.10;;;;;;5028323;28;20059;-60
2022/07/17 12:38:55;;;;;;;6.25;2.05;;;24.10;96.20;;;;;;5047595;28;20170;-62
2022/07/17 12:41:21;;;;;;;6.75;1.73;;;24.00;96.10;;;;;;5032954;28;20037;-61
2022/07/17 12:43:47;;;;;;;5.00;1.85;;;23.90;96.20;;;;;;5032236;28;20048;-62
2022/07/17 12:46:13;;;;;;;3.83;1.60;;;24.10;96.40;;;;;;5048692;28;20036;-61